sensor_id;sensor_type;location;lat;lon;timestamp;P1;durP1;ratioP1;P2;durP2;ratioP2
78854;SDS011;68206;59.956;30.234;2023-06-22T03:10:11;11.48;;;5.70;;
78854;SDS011;68206;59.956;30.234;2023-06-22T04:49:07;11.40;;;6.68;;
78854;SDS011;68206;59.956;30.234;2023-06-22T05:10:14;10.70;;;7.10;;
78854;SDS011;68206;59.956;30.234;2023-06-22T05:30:53;18.70;;;7.68;;
78854;SDS011;68206;59.956;30.234;2023-06-22T05:55:30;16.98;;;9.68;;
78854;SDS011;68206;59.956;30.234;2023-06-22T05:58:01;13.60;;;8.20;;
78854;SDS011;68206;59.956;30.234;2023-06-22T06:00:30;16.05;;;7.30;;
78854;SDS011;68206;59.956;30.234;2023-06-22T06:02:59;13.75;;;7.80;;
78854;SDS011;68206;59.956;30.234;2023-06-22T06:05:32;14.98;;;8.10;;
78854;SDS011;68206;59.956;30.234;2023-06-22T06:08:01;13.02;;;7.45;;
78854;SDS011;68206;59.956;30.234;2023-06-22T06:10:33;19.00;;;8.07;;
78854;SDS011;68206;59.956;30.234;2023-06-22T06:13:03;16.45;;;7.53;;
78854;SDS011;68206;59.956;30.234;2023-06-22T06:15:31;16.77;;;8.00;;
78854;SDS011;68206;59.956;30.234;2023-06-22T06:21:38;14.20;;;7.95;;
78854;SDS011;68206;59.956;30.234;2023-06-22T06:24:29;20.38;;;9.25;;
78854;SDS011;68206;59.956;30.234;2023-06-22T06:27:33;16.77;;;8.93;;
78854;SDS011;68206;59.956;30.234;2023-06-22T06:31:01;23.63;;;8.93;;
78854;SDS011;68206;59.956;30.234;2023-06-22T06:34:23;18.83;;;8.73;;
78854;SDS011;68206;59.956;30.234;2023-06-22T06:37:38;17.48;;;9.63;;
78854;SDS011;68206;59.956;30.234;2023-06-22T06:40:56;16.45;;;9.25;;
78854;SDS011;68206;59.956;30.234;2023-06-22T06:43:49;19.00;;;9.50;;
78854;SDS011;68206;59.956;30.234;2023-06-22T06:46:41;24.58;;;9.27;;
78854;SDS011;68206;59.956;30.234;2023-06-22T06:49:44;19.63;;;9.55;;
78854;SDS011;68206;59.956;30.234;2023-06-22T06:52:58;18.95;;;9.15;;
78854;SDS011;68206;59.956;30.234;2023-06-22T06:55:44;17.17;;;8.55;;
78854;SDS011;68206;59.956;30.234;2023-06-22T06:59:08;17.88;;;9.18;;
78854;SDS011;68206;59.956;30.234;2023-06-22T07:01:58;15.20;;;9.00;;
78854;SDS011;68206;59.956;30.234;2023-06-22T07:04:27;18.45;;;9.88;;
78854;SDS011;68206;59.956;30.234;2023-06-22T07:06:55;21.00;;;8.98;;
78854;SDS011;68206;59.956;30.234;2023-06-22T07:09:23;15.93;;;9.95;;
78854;SDS011;68206;59.956;30.234;2023-06-22T07:11:52;16.38;;;9.55;;
78854;SDS011;68206;59.956;30.234;2023-06-22T07:14:21;15.05;;;9.10;;
78854;SDS011;68206;59.956;30.234;2023-06-22T07:16:50;14.93;;;10.05;;
78854;SDS011;68206;59.956;30.234;2023-06-22T07:19:24;17.60;;;9.32;;
78854;SDS011;68206;59.956;30.234;2023-06-22T07:21:55;22.38;;;9.80;;
78854;SDS011;68206;59.956;30.234;2023-06-22T07:24:23;22.02;;;10.20;;
78854;SDS011;68206;59.956;30.234;2023-06-22T07:26:52;16.50;;;8.90;;
78854;SDS011;68206;59.956;30.234;2023-06-22T07:29:23;18.52;;;8.95;;
78854;SDS011;68206;59.956;30.234;2023-06-22T07:31:52;16.98;;;8.55;;
78854;SDS011;68206;59.956;30.234;2023-06-22T07:34:22;17.13;;;8.80;;
78854;SDS011;68206;59.956;30.234;2023-06-22T07:36:51;20.15;;;8.98;;
78854;SDS011;68206;59.956;30.234;2023-06-22T07:39:19;18.33;;;8.75;;
78854;SDS011;68206;59.956;30.234;2023-06-22T07:41:52;17.17;;;8.95;;
78854;SDS011;68206;59.956;30.234;2023-06-22T07:44:20;19.55;;;9.60;;
78854;SDS011;68206;59.956;30.234;2023-06-22T07:46:50;16.08;;;8.52;;
78854;SDS011;68206;59.956;30.234;2023-06-22T07:49:18;20.35;;;8.32;;
78854;SDS011;68206;59.956;30.234;2023-06-22T07:51:46;15.27;;;8.32;;
78854;SDS011;68206;59.956;30.234;2023-06-22T07:54:15;14.30;;;9.00;;
78854;SDS011;68206;59.956;30.234;2023-06-22T07:56:44;20.67;;;7.90;;
78854;SDS011;68206;59.956;30.234;2023-06-22T07:59:13;15.52;;;8.98;;
78854;SDS011;68206;59.956;30.234;2023-06-22T08:01:42;17.50;;;8.85;;
78854;SDS011;68206;59.956;30.234;2023-06-22T08:04:11;18.52;;;8.52;;
78854;SDS011;68206;59.956;30.234;2023-06-22T08:06:40;14.43;;;8.45;;
78854;SDS011;68206;59.956;30.234;2023-06-22T08:09:08;16.35;;;7.55;;
78854;SDS011;68206;59.956;30.234;2023-06-22T08:11:37;16.20;;;8.90;;
78854;SDS011;68206;59.956;30.234;2023-06-22T08:14:05;12.90;;;8.63;;
78854;SDS011;68206;59.956;30.234;2023-06-22T08:16:33;15.32;;;7.88;;
78854;SDS011;68206;59.956;30.234;2023-06-22T08:19:01;20.52;;;8.20;;
78854;SDS011;68206;59.956;30.234;2023-06-22T08:21:31;22.42;;;8.35;;
78854;SDS011;68206;59.956;30.234;2023-06-22T08:23:59;21.08;;;7.40;;
78854;SDS011;68206;59.956;30.234;2023-06-22T08:26:27;13.45;;;7.22;;
78854;SDS011;68206;59.956;30.234;2023-06-22T08:28:55;13.25;;;7.30;;
78854;SDS011;68206;59.956;30.234;2023-06-22T08:31:23;15.32;;;7.95;;
78854;SDS011;68206;59.956;30.234;2023-06-22T08:33:52;15.57;;;8.55;;
78854;SDS011;68206;59.956;30.234;2023-06-22T08:36:20;17.05;;;8.18;;
78854;SDS011;68206;59.956;30.234;2023-06-22T08:38:51;16.63;;;9.30;;
78854;SDS011;68206;59.956;30.234;2023-06-22T08:41:20;11.90;;;8.13;;
78854;SDS011;68206;59.956;30.234;2023-06-22T08:43:48;19.83;;;7.53;;
78854;SDS011;68206;59.956;30.234;2023-06-22T08:46:16;18.73;;;8.10;;
78854;SDS011;68206;59.956;30.234;2023-06-22T08:48:48;13.00;;;8.02;;
78854;SDS011;68206;59.956;30.234;2023-06-22T08:51:17;11.82;;;7.43;;
78854;SDS011;68206;59.956;30.234;2023-06-22T08:53:45;17.95;;;8.18;;
78854;SDS011;68206;59.956;30.234;2023-06-22T08:56:14;16.35;;;6.93;;
78854;SDS011;68206;59.956;30.234;2023-06-22T08:58:42;15.80;;;7.90;;
78854;SDS011;68206;59.956;30.234;2023-06-22T09:01:11;16.42;;;7.18;;
78854;SDS011;68206;59.956;30.234;2023-06-22T09:03:39;11.85;;;7.53;;
78854;SDS011;68206;59.956;30.234;2023-06-22T09:06:07;14.43;;;7.60;;
78854;SDS011;68206;59.956;30.234;2023-06-22T09:08:36;10.65;;;6.00;;
78854;SDS011;68206;59.956;30.234;2023-06-22T09:11:05;15.93;;;7.75;;
78854;SDS011;68206;59.956;30.234;2023-06-22T09:13:34;11.65;;;7.25;;
78854;SDS011;68206;59.956;30.234;2023-06-22T09:16:03;10.13;;;6.45;;
78854;SDS011;68206;59.956;30.234;2023-06-22T09:18:33;15.90;;;6.90;;
78854;SDS011;68206;59.956;30.234;2023-06-22T09:21:03;15.85;;;7.85;;
78854;SDS011;68206;59.956;30.234;2023-06-22T09:23:31;13.88;;;8.25;;
78854;SDS011;68206;59.956;30.234;2023-06-22T09:26:01;11.30;;;7.70;;
78854;SDS011;68206;59.956;30.234;2023-06-22T09:28:30;15.23;;;6.82;;
78854;SDS011;68206;59.956;30.234;2023-06-22T09:31:01;17.38;;;6.75;;
78854;SDS011;68206;59.956;30.234;2023-06-22T09:33:29;11.43;;;6.88;;
78854;SDS011;68206;59.956;30.234;2023-06-22T09:35:57;13.20;;;8.27;;
78854;SDS011;68206;59.956;30.234;2023-06-22T09:38:26;13.55;;;7.65;;
78854;SDS011;68206;59.956;30.234;2023-06-22T09:40:54;14.13;;;7.45;;
78854;SDS011;68206;59.956;30.234;2023-06-22T09:43:22;13.50;;;7.40;;
78854;SDS011;68206;59.956;30.234;2023-06-22T09:45:50;11.20;;;7.25;;
78854;SDS011;68206;59.956;30.234;2023-06-22T09:48:19;12.10;;;6.53;;
78854;SDS011;68206;59.956;30.234;2023-06-22T09:50:48;16.23;;;6.88;;
78854;SDS011;68206;59.956;30.234;2023-06-22T09:53:16;12.63;;;7.68;;
78854;SDS011;68206;59.956;30.234;2023-06-22T09:55:45;12.15;;;7.40;;
78854;SDS011;68206;59.956;30.234;2023-06-22T09:58:13;12.30;;;7.03;;
78854;SDS011;68206;59.956;30.234;2023-06-22T10:00:41;11.88;;;6.47;;
78854;SDS011;68206;59.956;30.234;2023-06-22T10:03:09;13.27;;;7.07;;
78854;SDS011;68206;59.956;30.234;2023-06-22T10:05:39;10.82;;;6.78;;
78854;SDS011;68206;59.956;30.234;2023-06-22T10:08:07;16.15;;;7.00;;
78854;SDS011;68206;59.956;30.234;2023-06-22T10:10:36;9.95;;;6.75;;
78854;SDS011;68206;59.956;30.234;2023-06-22T10:13:07;11.15;;;6.43;;
78854;SDS011;68206;59.956;30.234;2023-06-22T10:15:39;11.63;;;6.43;;
78854;SDS011;68206;59.956;30.234;2023-06-22T10:18:07;13.85;;;7.15;;
78854;SDS011;68206;59.956;30.234;2023-06-22T10:20:35;10.98;;;6.80;;
78854;SDS011;68206;59.956;30.234;2023-06-22T10:23:05;12.00;;;6.78;;
78854;SDS011;68206;59.956;30.234;2023-06-22T10:25:34;12.80;;;7.45;;
78854;SDS011;68206;59.956;30.234;2023-06-22T10:28:02;11.40;;;7.22;;
78854;SDS011;68206;59.956;30.234;2023-06-22T10:30:30;16.55;;;7.32;;
78854;SDS011;68206;59.956;30.234;2023-06-22T10:32:59;19.45;;;6.68;;
78854;SDS011;68206;59.956;30.234;2023-06-22T10:35:27;12.68;;;6.55;;
78854;SDS011;68206;59.956;30.234;2023-06-22T10:37:56;14.57;;;8.65;;
78854;SDS011;68206;59.956;30.234;2023-06-22T10:40:25;8.63;;;5.75;;
78854;SDS011;68206;59.956;30.234;2023-06-22T10:42:53;14.32;;;6.45;;
78854;SDS011;68206;59.956;30.234;2023-06-22T10:45:21;15.40;;;7.65;;
78854;SDS011;68206;59.956;30.234;2023-06-22T10:47:50;10.23;;;6.68;;
78854;SDS011;68206;59.956;30.234;2023-06-22T10:50:18;15.95;;;7.45;;
78854;SDS011;68206;59.956;30.234;2023-06-22T10:52:46;11.30;;;6.75;;
78854;SDS011;68206;59.956;30.234;2023-06-22T10:55:16;19.25;;;6.70;;
78854;SDS011;68206;59.956;30.234;2023-06-22T10:57:45;12.65;;;7.32;;
78854;SDS011;68206;59.956;30.234;2023-06-22T11:00:14;10.55;;;6.65;;
78854;SDS011;68206;59.956;30.234;2023-06-22T11:02:43;9.10;;;5.95;;
78854;SDS011;68206;59.956;30.234;2023-06-22T11:05:11;10.82;;;6.70;;
78854;SDS011;68206;59.956;30.234;2023-06-22T11:07:41;8.95;;;5.85;;
78854;SDS011;68206;59.956;30.234;2023-06-22T11:10:12;9.20;;;6.40;;
78854;SDS011;68206;59.956;30.234;2023-06-22T11:12:40;13.27;;;6.45;;
78854;SDS011;68206;59.956;30.234;2023-06-22T11:15:11;10.75;;;6.15;;
78854;SDS011;68206;59.956;30.234;2023-06-22T11:17:39;8.77;;;6.30;;
78854;SDS011;68206;59.956;30.234;2023-06-22T11:20:07;11.48;;;6.85;;
78854;SDS011;68206;59.956;30.234;2023-06-22T11:22:38;15.98;;;6.72;;
78854;SDS011;68206;59.956;30.234;2023-06-22T11:25:06;15.75;;;8.23;;
78854;SDS011;68206;59.956;30.234;2023-06-22T11:27:35;22.35;;;8.60;;
78854;SDS011;68206;59.956;30.234;2023-06-22T11:30:04;16.55;;;9.50;;
78854;SDS011;68206;59.956;30.234;2023-06-22T11:32:34;14.55;;;6.85;;
78854;SDS011;68206;59.956;30.234;2023-06-22T11:35:04;9.32;;;6.20;;
78854;SDS011;68206;59.956;30.234;2023-06-22T11:37:32;14.13;;;7.57;;
78854;SDS011;68206;59.956;30.234;2023-06-22T11:40:00;17.48;;;8.13;;
78854;SDS011;68206;59.956;30.234;2023-06-22T11:42:33;14.13;;;7.53;;
78854;SDS011;68206;59.956;30.234;2023-06-22T11:45:02;13.88;;;7.65;;
78854;SDS011;68206;59.956;30.234;2023-06-22T11:47:34;11.48;;;6.82;;
78854;SDS011;68206;59.956;30.234;2023-06-22T11:50:03;18.60;;;7.90;;
78854;SDS011;68206;59.956;30.234;2023-06-22T11:52:32;10.85;;;6.43;;
78854;SDS011;68206;59.956;30.234;2023-06-22T11:55:03;14.10;;;7.18;;
78854;SDS011;68206;59.956;30.234;2023-06-22T11:57:33;13.43;;;6.60;;
78854;SDS011;68206;59.956;30.234;2023-06-22T12:00:03;11.77;;;6.03;;
78854;SDS011;68206;59.956;30.234;2023-06-22T12:02:43;16.13;;;7.57;;
78854;SDS011;68206;59.956;30.234;2023-06-22T12:05:12;11.48;;;7.80;;
78854;SDS011;68206;59.956;30.234;2023-06-22T12:07:41;8.98;;;6.60;;
78854;SDS011;68206;59.956;30.234;2023-06-22T12:10:09;12.45;;;6.43;;
78854;SDS011;68206;59.956;30.234;2023-06-22T12:12:38;10.05;;;6.07;;
78854;SDS011;68206;59.956;30.234;2023-06-22T12:15:06;8.68;;;5.53;;
78854;SDS011;68206;59.956;30.234;2023-06-22T12:17:35;10.45;;;6.15;;
78854;SDS011;68206;59.956;30.234;2023-06-22T12:20:05;13.50;;;6.22;;
78854;SDS011;68206;59.956;30.234;2023-06-22T12:25:05;10.25;;;6.38;;
78854;SDS011;68206;59.956;30.234;2023-06-22T12:27:34;14.90;;;6.35;;
78854;SDS011;68206;59.956;30.234;2023-06-22T12:30:03;15.25;;;6.63;;
78854;SDS011;68206;59.956;30.234;2023-06-22T12:32:32;9.68;;;6.97;;
78854;SDS011;68206;59.956;30.234;2023-06-22T12:35:01;16.25;;;7.70;;
78854;SDS011;68206;59.956;30.234;2023-06-22T12:37:30;10.13;;;7.03;;
78854;SDS011;68206;59.956;30.234;2023-06-22T12:42:30;20.77;;;7.07;;
78854;SDS011;68206;59.956;30.234;2023-06-22T12:44:58;13.93;;;5.60;;
78854;SDS011;68206;59.956;30.234;2023-06-22T12:47:28;12.77;;;5.90;;
78854;SDS011;68206;59.956;30.234;2023-06-22T12:49:56;12.23;;;6.70;;
78854;SDS011;68206;59.956;30.234;2023-06-22T12:52:24;14.27;;;6.45;;
78854;SDS011;68206;59.956;30.234;2023-06-22T12:54:54;16.27;;;7.07;;
78854;SDS011;68206;59.956;30.234;2023-06-22T12:57:22;11.10;;;7.38;;
78854;SDS011;68206;59.956;30.234;2023-06-22T12:59:51;9.38;;;7.05;;
78854;SDS011;68206;59.956;30.234;2023-06-22T13:02:20;29.92;;;8.38;;
78854;SDS011;68206;59.956;30.234;2023-06-22T13:04:48;75.50;;;13.60;;
78854;SDS011;68206;59.956;30.234;2023-06-22T13:07:16;72.65;;;13.40;;
78854;SDS011;68206;59.956;30.234;2023-06-22T13:09:49;49.80;;;12.25;;
78854;SDS011;68206;59.956;30.234;2023-06-22T13:12:20;43.83;;;11.98;;
78854;SDS011;68206;59.956;30.234;2023-06-22T13:14:49;30.63;;;10.82;;
78854;SDS011;68206;59.956;30.234;2023-06-22T13:17:17;13.93;;;8.63;;
78854;SDS011;68206;59.956;30.234;2023-06-22T13:19:45;19.15;;;9.18;;
78854;SDS011;68206;59.956;30.234;2023-06-22T13:22:27;13.77;;;9.73;;
78854;SDS011;68206;59.956;30.234;2023-06-22T13:24:57;16.42;;;9.60;;
78854;SDS011;68206;59.956;30.234;2023-06-22T13:27:30;11.85;;;8.52;;
78854;SDS011;68206;59.956;30.234;2023-06-22T13:30:00;14.63;;;10.18;;
78854;SDS011;68206;59.956;30.234;2023-06-22T13:32:30;13.70;;;9.55;;
78854;SDS011;68206;59.956;30.234;2023-06-22T13:34:58;15.48;;;9.13;;
78854;SDS011;68206;59.956;30.234;2023-06-22T13:37:26;12.80;;;9.23;;
78854;SDS011;68206;59.956;30.234;2023-06-22T13:39:54;21.80;;;9.52;;
78854;SDS011;68206;59.956;30.234;2023-06-22T13:42:25;25.83;;;8.95;;
78854;SDS011;68206;59.956;30.234;2023-06-22T13:44:56;13.98;;;8.95;;
78854;SDS011;68206;59.956;30.234;2023-06-22T13:47:24;12.45;;;9.45;;
78854;SDS011;68206;59.956;30.234;2023-06-22T13:49:56;11.80;;;8.77;;
78854;SDS011;68206;59.956;30.234;2023-06-22T13:52:25;12.70;;;9.65;;
78854;SDS011;68206;59.956;30.234;2023-06-22T13:54:53;16.98;;;9.48;;
78854;SDS011;68206;59.956;30.234;2023-06-22T13:57:22;12.65;;;9.35;;
78854;SDS011;68206;59.956;30.234;2023-06-22T13:59:51;16.23;;;8.95;;
78854;SDS011;68206;59.956;30.234;2023-06-22T14:02:20;14.13;;;9.00;;
78854;SDS011;68206;59.956;30.234;2023-06-22T14:04:49;12.93;;;8.40;;
78854;SDS011;68206;59.956;30.234;2023-06-22T14:07:17;18.30;;;9.13;;
78854;SDS011;68206;59.956;30.234;2023-06-22T14:09:47;15.20;;;9.38;;
78854;SDS011;68206;59.956;30.234;2023-06-22T14:12:16;15.57;;;8.77;;
78854;SDS011;68206;59.956;30.234;2023-06-22T14:14:45;14.32;;;8.52;;
78854;SDS011;68206;59.956;30.234;2023-06-22T14:17:13;13.15;;;8.65;;
78854;SDS011;68206;59.956;30.234;2023-06-22T14:19:43;12.20;;;7.35;;
78854;SDS011;68206;59.956;30.234;2023-06-22T14:22:11;10.02;;;7.20;;
78854;SDS011;68206;59.956;30.234;2023-06-22T14:24:39;9.65;;;6.75;;
78854;SDS011;68206;59.956;30.234;2023-06-22T14:27:07;11.20;;;7.55;;
78854;SDS011;68206;59.956;30.234;2023-06-22T14:29:35;10.95;;;6.90;;
78854;SDS011;68206;59.956;30.234;2023-06-22T14:32:04;11.35;;;6.93;;
78854;SDS011;68206;59.956;30.234;2023-06-22T14:34:33;12.40;;;7.18;;
78854;SDS011;68206;59.956;30.234;2023-06-22T14:37:05;10.38;;;6.57;;
78854;SDS011;68206;59.956;30.234;2023-06-22T14:39:33;13.38;;;7.70;;
78854;SDS011;68206;59.956;30.234;2023-06-22T14:42:01;16.38;;;8.13;;
78854;SDS011;68206;59.956;30.234;2023-06-22T14:44:30;18.83;;;8.98;;
78854;SDS011;68206;59.956;30.234;2023-06-22T14:46:59;12.77;;;7.65;;
78854;SDS011;68206;59.956;30.234;2023-06-22T14:49:27;13.60;;;8.25;;
78854;SDS011;68206;59.956;30.234;2023-06-22T14:51:56;11.95;;;7.30;;
78854;SDS011;68206;59.956;30.234;2023-06-22T14:54:25;11.48;;;7.05;;
78854;SDS011;68206;59.956;30.234;2023-06-22T14:56:54;11.63;;;6.78;;
78854;SDS011;68206;59.956;30.234;2023-06-22T14:59:22;12.02;;;7.22;;
78854;SDS011;68206;59.956;30.234;2023-06-22T15:01:50;11.77;;;7.60;;
78854;SDS011;68206;59.956;30.234;2023-06-22T15:04:19;15.90;;;7.82;;
78854;SDS011;68206;59.956;30.234;2023-06-22T15:06:47;12.60;;;7.40;;
78854;SDS011;68206;59.956;30.234;2023-06-22T15:09:15;13.63;;;7.72;;
78854;SDS011;68206;59.956;30.234;2023-06-22T15:11:45;14.13;;;8.40;;
78854;SDS011;68206;59.956;30.234;2023-06-22T15:14:13;19.90;;;8.02;;
78854;SDS011;68206;59.956;30.234;2023-06-22T15:16:41;16.92;;;7.88;;
78854;SDS011;68206;59.956;30.234;2023-06-22T15:19:09;16.45;;;9.45;;
78854;SDS011;68206;59.956;30.234;2023-06-22T15:21:39;16.35;;;8.88;;
78854;SDS011;68206;59.956;30.234;2023-06-22T15:24:08;26.73;;;9.23;;
78854;SDS011;68206;59.956;30.234;2023-06-22T15:26:36;13.43;;;8.18;;
78854;SDS011;68206;59.956;30.234;2023-06-22T15:29:06;13.23;;;8.43;;
78854;SDS011;68206;59.956;30.234;2023-06-22T15:31:34;13.15;;;7.43;;
78854;SDS011;68206;59.956;30.234;2023-06-22T15:34:03;12.57;;;8.35;;
78854;SDS011;68206;59.956;30.234;2023-06-22T15:36:31;17.45;;;9.10;;
78854;SDS011;68206;59.956;30.234;2023-06-22T15:39:01;14.55;;;8.75;;
78854;SDS011;68206;59.956;30.234;2023-06-22T15:41:29;10.75;;;7.65;;
78854;SDS011;68206;59.956;30.234;2023-06-22T15:43:57;13.50;;;7.47;;
78854;SDS011;68206;59.956;30.234;2023-06-22T15:46:27;21.75;;;7.13;;
78854;SDS011;68206;59.956;30.234;2023-06-22T15:48:55;11.57;;;7.10;;
78854;SDS011;68206;59.956;30.234;2023-06-22T15:51:24;11.23;;;7.40;;
78854;SDS011;68206;59.956;30.234;2023-06-22T15:53:52;11.32;;;7.28;;
78854;SDS011;68206;59.956;30.234;2023-06-22T15:56:23;11.55;;;7.35;;
78854;SDS011;68206;59.956;30.234;2023-06-22T15:58:51;15.70;;;7.25;;
78854;SDS011;68206;59.956;30.234;2023-06-22T16:01:20;12.23;;;7.45;;
78854;SDS011;68206;59.956;30.234;2023-06-22T16:03:50;13.93;;;8.13;;
78854;SDS011;68206;59.956;30.234;2023-06-22T16:06:19;16.10;;;8.05;;
78854;SDS011;68206;59.956;30.234;2023-06-22T16:08:48;15.77;;;7.57;;
78854;SDS011;68206;59.956;30.234;2023-06-22T16:11:16;12.65;;;7.07;;
78854;SDS011;68206;59.956;30.234;2023-06-22T16:13:45;11.65;;;7.57;;
78854;SDS011;68206;59.956;30.234;2023-06-22T16:16:13;10.70;;;6.88;;
78854;SDS011;68206;59.956;30.234;2023-06-22T16:18:42;10.45;;;6.88;;
78854;SDS011;68206;59.956;30.234;2023-06-22T16:21:13;13.55;;;6.88;;
78854;SDS011;68206;59.956;30.234;2023-06-22T16:23:42;11.68;;;6.93;;
78854;SDS011;68206;59.956;30.234;2023-06-22T16:26:10;11.38;;;6.85;;
78854;SDS011;68206;59.956;30.234;2023-06-22T16:28:38;9.27;;;7.60;;
78854;SDS011;68206;59.956;30.234;2023-06-22T16:31:07;11.35;;;6.95;;
78854;SDS011;68206;59.956;30.234;2023-06-22T16:33:35;9.15;;;6.30;;
78854;SDS011;68206;59.956;30.234;2023-06-22T16:36:03;11.13;;;7.10;;
78854;SDS011;68206;59.956;30.234;2023-06-22T16:38:33;11.23;;;7.45;;
78854;SDS011;68206;59.956;30.234;2023-06-22T16:41:05;10.88;;;6.25;;
78854;SDS011;68206;59.956;30.234;2023-06-22T16:43:33;10.57;;;7.07;;
78854;SDS011;68206;59.956;30.234;2023-06-22T16:46:01;11.10;;;6.30;;
78854;SDS011;68206;59.956;30.234;2023-06-22T16:48:30;10.75;;;7.07;;
78854;SDS011;68206;59.956;30.234;2023-06-22T16:50:58;8.55;;;5.60;;
78854;SDS011;68206;59.956;30.234;2023-06-22T16:53:26;8.32;;;5.88;;
78854;SDS011;68206;59.956;30.234;2023-06-22T16:55:56;7.95;;;6.60;;
78854;SDS011;68206;59.956;30.234;2023-06-22T16:58:25;9.98;;;6.45;;
78854;SDS011;68206;59.956;30.234;2023-06-22T17:00:54;7.95;;;5.05;;
78854;SDS011;68206;59.956;30.234;2023-06-22T17:03:22;9.68;;;6.05;;
78854;SDS011;68206;59.956;30.234;2023-06-22T17:05:55;11.35;;;5.97;;
78854;SDS011;68206;59.956;30.234;2023-06-22T17:08:28;8.25;;;6.03;;
78854;SDS011;68206;59.956;30.234;2023-06-22T17:11:02;9.43;;;6.75;;
78854;SDS011;68206;59.956;30.234;2023-06-22T17:13:30;12.30;;;6.57;;
78854;SDS011;68206;59.956;30.234;2023-06-22T17:15:59;9.00;;;6.10;;
78854;SDS011;68206;59.956;30.234;2023-06-22T17:18:29;9.15;;;6.05;;
78854;SDS011;68206;59.956;30.234;2023-06-22T17:20:58;9.15;;;6.07;;
78854;SDS011;68206;59.956;30.234;2023-06-22T17:23:26;8.07;;;5.47;;
78854;SDS011;68206;59.956;30.234;2023-06-22T17:25:57;9.20;;;5.95;;
78854;SDS011;68206;59.956;30.234;2023-06-22T17:31:19;11.63;;;7.25;;
78854;SDS011;68206;59.956;30.234;2023-06-22T17:33:48;11.32;;;6.63;;
78854;SDS011;68206;59.956;30.234;2023-06-22T17:36:17;8.82;;;5.85;;
78854;SDS011;68206;59.956;30.234;2023-06-22T17:38:45;9.23;;;6.07;;
78854;SDS011;68206;59.956;30.234;2023-06-22T17:41:13;9.43;;;5.90;;
78854;SDS011;68206;59.956;30.234;2023-06-22T17:43:45;9.32;;;5.57;;
78854;SDS011;68206;59.956;30.234;2023-06-22T17:46:15;9.82;;;5.88;;
78854;SDS011;68206;59.956;30.234;2023-06-22T17:48:44;11.75;;;5.18;;
78854;SDS011;68206;59.956;30.234;2023-06-22T17:51:13;9.35;;;5.57;;
78854;SDS011;68206;59.956;30.234;2023-06-22T17:53:49;9.27;;;6.15;;
78854;SDS011;68206;59.956;30.234;2023-06-22T17:56:17;9.43;;;6.50;;
78854;SDS011;68206;59.956;30.234;2023-06-22T17:58:52;7.82;;;6.20;;
78854;SDS011;68206;59.956;30.234;2023-06-22T18:01:28;9.98;;;6.25;;
78854;SDS011;68206;59.956;30.234;2023-06-22T18:04:06;10.27;;;6.22;;
78854;SDS011;68206;59.956;30.234;2023-06-22T18:06:35;10.63;;;6.57;;
78854;SDS011;68206;59.956;30.234;2023-06-22T18:09:09;10.88;;;7.18;;
78854;SDS011;68206;59.956;30.234;2023-06-22T18:11:42;11.13;;;6.80;;
78854;SDS011;68206;59.956;30.234;2023-06-22T18:14:13;11.10;;;6.03;;
78854;SDS011;68206;59.956;30.234;2023-06-22T18:16:45;12.48;;;6.65;;
78854;SDS011;68206;59.956;30.234;2023-06-22T18:19:15;11.23;;;6.97;;
78854;SDS011;68206;59.956;30.234;2023-06-22T18:21:45;11.30;;;7.13;;
78854;SDS011;68206;59.956;30.234;2023-06-22T18:24:14;10.80;;;6.80;;
78854;SDS011;68206;59.956;30.234;2023-06-22T18:26:44;10.05;;;6.60;;
78854;SDS011;68206;59.956;30.234;2023-06-22T18:29:12;12.10;;;7.90;;
78854;SDS011;68206;59.956;30.234;2023-06-22T18:31:41;11.70;;;6.65;;
78854;SDS011;68206;59.956;30.234;2023-06-22T18:34:12;11.93;;;7.88;;
78854;SDS011;68206;59.956;30.234;2023-06-22T18:36:41;10.18;;;6.82;;
78854;SDS011;68206;59.956;30.234;2023-06-22T18:39:13;13.75;;;7.85;;
78854;SDS011;68206;59.956;30.234;2023-06-22T18:41:48;9.63;;;7.35;;
78854;SDS011;68206;59.956;30.234;2023-06-22T18:44:19;13.10;;;7.43;;
78854;SDS011;68206;59.956;30.234;2023-06-22T18:46:50;12.75;;;8.60;;
78854;SDS011;68206;59.956;30.234;2023-06-22T18:49:24;11.02;;;7.25;;
78854;SDS011;68206;59.956;30.234;2023-06-22T18:51:54;13.90;;;7.15;;
78854;SDS011;68206;59.956;30.234;2023-06-22T18:54:24;15.57;;;7.95;;
78854;SDS011;68206;59.956;30.234;2023-06-22T18:57:00;10.98;;;7.88;;
78854;SDS011;68206;59.956;30.234;2023-06-22T19:02:34;12.45;;;7.97;;
78854;SDS011;68206;59.956;30.234;2023-06-22T19:05:15;13.25;;;7.88;;
78854;SDS011;68206;59.956;30.234;2023-06-22T19:10:40;11.20;;;7.72;;
78854;SDS011;68206;59.956;30.234;2023-06-22T19:13:24;12.10;;;7.80;;
78854;SDS011;68206;59.956;30.234;2023-06-22T19:15:54;11.85;;;6.95;;
78854;SDS011;68206;59.956;30.234;2023-06-22T19:18:29;9.45;;;6.38;;
78854;SDS011;68206;59.956;30.234;2023-06-22T19:21:06;17.08;;;8.15;;
78854;SDS011;68206;59.956;30.234;2023-06-22T19:23:36;14.25;;;8.57;;
78854;SDS011;68206;59.956;30.234;2023-06-22T19:26:06;13.27;;;7.53;;
78854;SDS011;68206;59.956;30.234;2023-06-22T19:28:43;11.68;;;7.22;;
78854;SDS011;68206;59.956;30.234;2023-06-22T19:31:12;10.98;;;7.28;;
78854;SDS011;68206;59.956;30.234;2023-06-22T19:33:41;9.98;;;6.45;;
78854;SDS011;68206;59.956;30.234;2023-06-22T19:36:10;12.77;;;6.55;;
78854;SDS011;68206;59.956;30.234;2023-06-22T19:38:39;9.45;;;6.38;;
78854;SDS011;68206;59.956;30.234;2023-06-22T19:41:07;10.77;;;6.10;;
78854;SDS011;68206;59.956;30.234;2023-06-22T19:43:36;11.45;;;6.35;;
78854;SDS011;68206;59.956;30.234;2023-06-22T19:46:05;9.23;;;5.93;;
78854;SDS011;68206;59.956;30.234;2023-06-22T19:48:33;9.50;;;6.30;;
78854;SDS011;68206;59.956;30.234;2023-06-22T19:51:02;11.00;;;5.85;;
78854;SDS011;68206;59.956;30.234;2023-06-22T19:53:33;10.10;;;6.68;;
78854;SDS011;68206;59.956;30.234;2023-06-22T19:56:02;10.57;;;6.45;;
78854;SDS011;68206;59.956;30.234;2023-06-22T19:58:33;8.52;;;6.03;;
78854;SDS011;68206;59.956;30.234;2023-06-22T20:01:02;11.30;;;5.90;;
78854;SDS011;68206;59.956;30.234;2023-06-22T20:03:31;8.43;;;5.45;;
78854;SDS011;68206;59.956;30.234;2023-06-22T20:06:09;11.32;;;6.03;;
78854;SDS011;68206;59.956;30.234;2023-06-22T20:08:44;9.60;;;6.18;;
78854;SDS011;68206;59.956;30.234;2023-06-22T20:11:13;9.95;;;6.30;;
78854;SDS011;68206;59.956;30.234;2023-06-22T20:13:47;10.68;;;6.68;;
78854;SDS011;68206;59.956;30.234;2023-06-22T20:16:16;10.32;;;5.53;;
78854;SDS011;68206;59.956;30.234;2023-06-22T20:18:45;9.93;;;6.25;;
78854;SDS011;68206;59.956;30.234;2023-06-22T20:21:14;9.27;;;5.70;;
78854;SDS011;68206;59.956;30.234;2023-06-22T20:23:44;10.45;;;7.28;;
78854;SDS011;68206;59.956;30.234;2023-06-22T20:26:12;10.88;;;6.63;;
78854;SDS011;68206;59.956;30.234;2023-06-22T20:28:44;11.52;;;6.57;;
78854;SDS011;68206;59.956;30.234;2023-06-22T20:31:15;9.48;;;6.72;;
78854;SDS011;68206;59.956;30.234;2023-06-22T20:33:44;10.93;;;6.88;;
78854;SDS011;68206;59.956;30.234;2023-06-22T20:36:12;12.95;;;7.13;;
78854;SDS011;68206;59.956;30.234;2023-06-22T20:38:45;8.88;;;6.13;;
78854;SDS011;68206;59.956;30.234;2023-06-22T20:41:13;11.40;;;7.68;;
78854;SDS011;68206;59.956;30.234;2023-06-22T20:43:42;10.38;;;5.70;;
78854;SDS011;68206;59.956;30.234;2023-06-22T20:46:11;9.77;;;6.10;;